Terminal Aerodrome Forecast
Issued by NWS Quad Cities IA IL

Home | Current Version | Previous Version | Text Only | Print | Product List | Glossary On
Versions: 1 2 3 4 5 6 7 8 9 10 11 12 13 14
000
FTUS43 KDVN 271700 RRA
TAFDBQ
TAF
KDBQ 271755Z 2718/2818 27014G21KT P6SM OVC015
      TEMPO 2721/2723 SCT020
     FM272300 29010KT P6SM SCT020
     FM280100 26005KT P6SM SKC=

USA.gov is the U.S. government's official web portal to all federal, state and local government web resources and services.